Time;durP1;ratioP1;P1;durP2;ratioP2;P2;SDS_P1;SDS_P2;PMS_P1;PMS_P2;Temp;Humidity;BMP_temperature;BMP_pressure;BME280_temperature;BME280_humidity;BME280_pressure;Samples;Min_cycle;Max_cycle;Signal;HPM_P1;HPM_P2
2022/01/10 00:02:13;;;;;;;1.95;1.85;;;4.70;99.90;;;4.88;89.84;100102.31;4988856;28;20241;-65
2022/01/10 00:04:41;;;;;;;1.70;1.60;;;4.70;99.90;;;4.95;89.53;100113.97;4991414;28;20265;-66
2022/01/10 00:07:08;;;;;;;3.33;2.13;;;4.80;99.90;;;4.94;89.44;100111.50;4990607;28;20198;-65
2022/01/10 00:09:35;;;;;;;2.90;1.60;;;4.80;99.90;;;4.92;89.27;100116.72;4991070;28;20203;-66
2022/01/10 00:12:02;;;;;;;3.05;1.70;;;4.80;99.90;;;4.87;88.97;100112.75;4992496;28;20203;-64
2022/01/10 00:14:35;;;;;;;2.28;2.08;;;4.80;99.90;;;4.79;90.25;100120.09;4990026;28;20235;-65
2022/01/10 00:17:04;;;;;;;5.68;1.77;;;4.60;99.90;;;4.71;90.21;100115.34;4973249;28;20209;-64
2022/01/10 00:19:31;;;;;;;7.90;2.50;;;4.60;99.90;;;4.61;91.19;100122.81;4973139;28;20690;-65
2022/01/10 00:21:58;;;;;;;7.15;2.45;;;4.50;99.90;;;4.62;91.30;100129.63;4990894;28;20219;-63
2022/01/10 00:24:25;;;;;;;2.47;1.80;;;4.40;99.90;;;4.63;90.75;100135.63;4989468;28;20266;-65
2022/01/10 00:26:52;;;;;;;5.85;2.45;;;4.50;99.90;;;4.64;91.13;100132.13;4972693;28;20199;-64
2022/01/10 00:29:18;;;;;;;1.95;1.85;;;4.50;99.90;;;4.64;91.58;100137.31;4989440;28;20581;-64
2022/01/10 00:31:45;;;;;;;1.85;1.65;;;4.50;99.90;;;4.64;91.33;100135.53;4987932;28;20188;-65
2022/01/10 00:34:12;;;;;;;2.42;1.98;;;4.50;99.90;;;4.67;91.35;100137.97;4972567;28;20226;-65
2022/01/10 00:36:40;;;;;;;2.10;2.00;;;4.50;99.90;;;4.67;91.50;100145.72;4986414;28;20203;-62
2022/01/10 00:39:07;;;;;;;3.90;2.10;;;4.50;99.90;;;4.64;91.08;100152.81;4973556;28;20195;-66
2022/01/10 00:41:34;;;;;;;2.20;1.98;;;4.50;99.90;;;4.62;90.94;100154.66;4990457;28;20298;-63
2022/01/10 00:44:01;;;;;;;3.85;2.70;;;4.50;99.90;;;4.60;90.89;100157.28;4972279;28;20227;-63
2022/01/10 00:46:28;;;;;;;5.85;2.50;;;4.50;99.90;;;4.62;90.86;100163.22;4990960;28;20199;-64
2022/01/10 00:48:55;;;;;;;2.30;2.10;;;4.50;99.90;;;4.65;91.00;100163.06;4989603;28;20214;-65
2022/01/10 00:51:23;;;;;;;2.40;2.20;;;4.50;99.90;;;4.60;91.34;100169.38;4975250;28;20199;-66
2022/01/10 00:53:52;;;;;;;3.30;2.83;;;4.40;99.90;;;4.60;91.39;100166.78;4973173;28;20596;-65
2022/01/10 00:56:20;;;;;;;2.83;2.10;;;4.40;99.90;;;4.61;91.30;100173.63;4989132;28;20212;-65
2022/01/10 00:58:48;;;;;;;2.85;2.50;;;4.40;99.90;;;4.61;91.29;100184.81;4973566;28;20218;-64
2022/01/10 01:01:16;;;;;;;4.35;3.10;;;4.50;99.90;;;4.55;91.34;100179.97;4987017;28;20212;-64
2022/01/10 01:03:44;;;;;;;3.28;2.55;;;4.40;99.90;;;4.55;91.54;100185.16;4988790;28;20816;-65
2022/01/10 01:06:12;;;;;;;4.32;2.20;;;4.40;99.90;;;4.51;92.25;100188.81;4971548;28;20204;-65
2022/01/10 01:08:41;;;;;;;4.82;2.28;;;4.40;99.90;;;4.47;92.32;100187.28;4969933;28;20189;-64
2022/01/10 01:13:49;;;;;;;4.07;2.63;;;4.30;99.90;;;4.47;92.26;100201.97;4991014;28;20245;-64
2022/01/10 01:16:41;;;;;;;4.20;2.50;;;4.30;99.90;;;4.42;92.76;100194.47;4992057;28;20206;-64
2022/01/10 01:24:21;;;;;;;2.55;2.17;;;4.30;99.90;;;4.42;92.99;100212.56;4989297;28;20216;-63
2022/01/10 01:26:51;;;;;;;5.90;2.05;;;4.30;99.90;;;4.38;93.39;100213.63;4972586;28;20697;-64
2022/01/10 01:29:24;;;;;;;2.63;2.42;;;4.20;99.90;;;4.44;92.95;100222.78;4989064;28;20200;-65
2022/01/10 01:31:52;;;;;;;2.38;2.17;;;4.30;99.90;;;4.43;93.11;100219.38;4991532;28;20221;-65
2022/01/10 01:34:21;;;;;;;2.67;2.47;;;4.30;99.90;;;4.43;93.17;100224.53;4973472;28;20225;-65
2022/01/10 01:36:52;;;;;;;2.55;2.35;;;4.30;99.90;;;4.44;93.08;100233.13;4976091;28;20203;-64
2022/01/10 01:39:25;;;;;;;2.88;2.63;;;4.20;99.90;;;4.48;93.27;100239.78;4975940;28;20203;-64
2022/01/10 01:42:01;;;;;;;6.10;2.72;;;4.30;99.90;;;4.50;93.02;100243.97;4978809;28;20203;-64
2022/01/10 01:44:28;;;;;;;4.25;3.20;;;4.40;99.90;;;4.55;93.26;100241.16;4984839;28;20244;-64
2022/01/10 01:46:55;;;;;;;4.35;2.55;;;4.40;99.90;;;4.60;92.78;100239.97;4994751;28;20684;-65
2022/01/10 01:49:22;;;;;;;7.13;3.22;;;4.50;99.90;;;4.60;92.48;100247.72;4992618;28;20206;-65
2022/01/10 01:51:49;;;;;;;3.00;2.28;;;4.50;99.90;;;4.61;92.08;100246.81;4992675;28;20798;-64
2022/01/10 01:54:17;;;;;;;2.92;2.47;;;4.50;99.90;;;4.61;92.28;100251.16;4992702;28;20223;-64
2022/01/10 01:56:47;;;;;;;12.60;3.40;;;4.50;99.90;;;4.64;92.12;100251.81;4991213;28;20211;-65
2022/01/10 01:59:14;;;;;;;3.35;2.80;;;4.50;99.90;;;4.65;92.07;100256.06;4994199;28;20278;-65
2022/01/10 02:01:41;;;;;;;2.50;2.28;;;4.50;99.90;;;4.65;91.54;100252.66;4975332;28;20207;-64
2022/01/10 02:04:08;;;;;;;2.95;2.50;;;4.50;99.90;;;4.65;91.22;100263.00;4993575;28;20662;-64
2022/01/10 02:06:35;;;;;;;3.35;2.45;;;4.50;99.90;;;4.62;91.28;100258.81;4991287;28;20210;-62
2022/01/10 02:09:03;;;;;;;7.30;2.70;;;4.50;99.90;;;4.62;90.98;100268.34;4975928;28;20234;-64
2022/01/10 02:11:30;;;;;;;3.67;3.05;;;4.50;99.90;;;4.62;91.39;100279.47;4993188;28;20211;-64
2022/01/10 02:13:57;;;;;;;3.10;2.80;;;4.50;99.90;;;4.67;91.49;100285.25;4994884;28;20241;-64
2022/01/10 02:16:34;;;;;;;3.70;3.08;;;4.50;99.90;;;4.67;91.50;100282.66;4999540;28;20239;-64
2022/01/10 02:19:01;;;;;;;2.97;2.65;;;4.50;99.90;;;4.71;91.15;100293.66;4997509;28;20210;-64
2022/01/10 02:21:28;;;;;;;4.45;2.53;;;4.60;99.90;;;4.70;90.86;100287.69;4977818;28;20221;-63
2022/01/10 02:23:54;;;;;;;6.45;2.25;;;4.50;99.90;;;4.68;91.39;100288.69;4992882;28;20223;-65
2022/01/10 02:26:22;;;;;;;2.50;2.30;;;4.50;99.90;;;4.67;91.08;100293.00;4991633;28;20199;-64
2022/01/10 02:28:49;;;;;;;6.70;2.55;;;4.50;99.90;;;4.66;91.00;100308.59;4993554;28;20294;-64
2022/01/10 02:31:16;;;;;;;2.88;2.65;;;4.50;99.90;;;4.66;91.30;100301.66;4993993;28;20204;-63
2022/01/10 02:33:43;;;;;;;4.63;3.15;;;4.50;99.90;;;4.65;91.07;100310.34;4992993;28;20238;-64
2022/01/10 02:36:24;;;;;;;5.65;2.65;;;4.50;99.90;;;4.66;91.06;100306.00;4989523;28;20192;-64
2022/01/10 02:38:58;;;;;;;3.58;2.92;;;4.50;99.90;;;4.64;91.19;100302.69;4991089;28;20195;-64
2022/01/10 02:41:33;;;;;;;2.90;2.67;;;4.40;99.90;;;4.62;90.74;100315.66;4992827;28;20206;-63
2022/01/10 02:44:06;;;;;;;6.53;2.80;;;4.50;99.90;;;4.65;91.23;100315.50;4993249;28;20675;-64
2022/01/10 02:46:36;;;;;;;2.25;2.05;;;4.50;99.90;;;4.64;91.27;100319.00;4992823;28;20202;-65
2022/01/10 02:49:24;;;;;;;4.07;2.63;;;4.50;99.90;;;4.66;91.17;100318.94;4994105;28;20208;-65
2022/01/10 02:51:57;;;;;;;2.47;2.28;;;4.50;99.90;;;4.66;91.39;100331.84;4984206;28;20192;-63
2022/01/10 02:54:25;;;;;;;3.22;2.80;;;4.50;99.90;;;4.64;91.23;100329.34;4986362;28;20711;-65
2022/01/10 02:56:55;;;;;;;4.45;2.70;;;4.50;99.90;;;4.66;91.22;100326.69;4973414;28;20845;-64
2022/01/10 02:59:24;;;;;;;2.88;2.67;;;4.50;99.90;;;4.68;91.06;100338.59;4991437;28;20195;-65
2022/01/10 03:01:52;;;;;;;3.25;3.00;;;4.50;99.90;;;4.70;90.92;100341.97;4992527;28;20210;-63
2022/01/10 03:04:19;;;;;;;3.13;2.92;;;4.60;99.90;;;4.73;91.41;100346.09;4972671;28;20886;-64
2022/01/10 03:06:48;;;;;;;2.60;2.40;;;4.60;99.90;;;4.72;90.97;100347.88;4989644;28;20975;-65
2022/01/10 03:09:15;;;;;;;5.15;2.65;;;4.60;99.90;;;4.73;90.83;100352.13;4988364;28;20188;-63
2022/01/10 03:11:43;;;;;;;2.78;2.55;;;4.60;99.90;;;4.73;90.85;100354.69;4991382;28;20205;-64
2022/01/10 03:14:12;;;;;;;2.38;2.25;;;4.60;99.90;;;4.70;90.76;100357.47;4989406;28;20227;-65
2022/01/10 03:16:39;;;;;;;3.67;2.60;;;4.50;99.90;;;4.69;90.86;100362.69;4966318;28;20234;-64
2022/01/10 03:19:06;;;;;;;3.10;2.90;;;4.50;99.90;;;4.66;91.14;100366.25;4992026;28;20203;-65
2022/01/10 03:21:35;;;;;;;3.15;2.40;;;4.50;99.90;;;4.65;91.31;100371.53;4991571;28;20742;-64
2022/01/10 03:24:03;;;;;;;4.32;2.97;;;4.50;99.90;;;4.64;91.00;100370.69;4992671;28;20228;-65
2022/01/10 03:26:31;;;;;;;2.60;2.42;;;4.50;99.90;;;4.62;91.02;100372.50;4989507;28;20208;-64
2022/01/10 03:28:58;;;;;;;4.15;3.80;;;4.50;99.90;;;4.56;90.84;100384.91;4992322;28;20199;-65
2022/01/10 03:31:25;;;;;;;4.90;3.55;;;4.40;99.90;;;4.49;91.36;100386.16;4991949;28;20211;-63
2022/01/10 03:33:52;;;;;;;3.70;2.85;;;4.30;99.90;;;4.52;91.39;100388.56;4975846;28;20263;-64
2022/01/10 03:36:19;;;;;;;6.47;3.67;;;4.40;99.90;;;4.47;91.66;100396.53;4975962;28;20211;-65
2022/01/10 03:38:46;;;;;;;5.60;3.33;;;4.30;99.90;;;4.52;91.41;100399.75;4991446;28;20218;-64
2022/01/10 03:41:13;;;;;;;4.35;3.05;;;4.40;99.90;;;4.57;90.89;100408.09;4990076;28;20210;-64
2022/01/10 03:43:40;;;;;;;4.90;2.65;;;4.40;99.90;;;4.59;90.98;100402.84;4971942;28;20231;-64
2022/01/10 03:46:07;;;;;;;4.50;2.58;;;4.50;99.90;;;4.55;90.97;100402.19;4974103;28;20279;-64
2022/01/10 03:48:34;;;;;;;4.40;2.50;;;4.40;99.90;;;4.55;90.51;100414.25;4991256;28;20283;-65
2022/01/10 03:51:01;;;;;;;3.63;2.55;;;4.40;99.90;;;4.53;90.47;100419.50;4991031;28;20196;-65
2022/01/10 03:53:29;;;;;;;5.65;3.20;;;4.40;99.90;;;4.51;90.86;100423.06;4974836;28;20314;-64
2022/01/10 03:55:56;;;;;;;6.50;3.22;;;4.30;99.90;;;4.46;90.90;100422.47;4990104;28;20199;-65
2022/01/10 03:58:23;;;;;;;3.25;2.92;;;4.30;99.90;;;4.50;90.64;100426.56;4973903;28;20203;-64
2022/01/10 04:00:50;;;;;;;2.60;2.40;;;4.30;99.90;;;4.52;90.67;100428.16;4973342;28;20207;-64
2022/01/10 04:03:17;;;;;;;2.53;2.33;;;4.40;99.90;;;4.56;90.42;100424.50;4992257;28;20225;-63
2022/01/10 04:05:44;;;;;;;3.00;2.60;;;4.40;99.90;;;4.61;90.73;100432.88;4992211;28;20213;-64
2022/01/10 04:08:12;;;;;;;3.50;2.70;;;4.50;99.90;;;4.65;90.11;100436.97;4990277;28;20214;-63
2022/01/10 04:10:40;;;;;;;9.98;2.90;;;4.50;99.90;;;4.65;90.19;100438.72;4990788;28;20211;-65
2022/01/10 04:13:07;;;;;;;6.18;2.20;;;4.50;99.90;;;4.64;90.46;100448.19;4991120;28;20338;-63
2022/01/10 04:15:34;;;;;;;4.25;2.90;;;4.50;99.90;;;4.65;90.39;100439.56;4992295;28;20245;-64
2022/01/10 04:18:02;;;;;;;3.30;2.92;;;4.50;99.90;;;4.67;90.62;100442.88;4973146;28;20595;-64
2022/01/10 04:20:29;;;;;;;3.03;2.50;;;4.50;99.90;;;4.68;90.05;100452.31;4992413;28;20216;-63
2022/01/10 04:22:56;;;;;;;5.78;2.13;;;4.50;99.90;;;4.69;89.64;100448.81;4991045;28;20297;-64
2022/01/10 04:25:23;;;;;;;4.45;2.40;;;4.50;99.90;;;4.72;89.63;100451.25;4990299;28;20298;-63
2022/01/10 04:27:50;;;;;;;3.53;2.42;;;4.60;99.90;;;4.72;88.93;100451.25;4972992;28;20326;-64
2022/01/10 04:30:17;;;;;;;5.35;2.70;;;4.60;99.90;;;4.72;89.38;100455.59;4991320;28;20286;-65
2022/01/10 04:32:45;;;;;;;3.20;2.50;;;4.60;99.90;;;4.68;89.37;100462.63;4974286;28;20203;-63
2022/01/10 04:35:20;;;;;;;4.10;3.65;;;4.50;99.90;;;4.70;89.16;100471.19;4971672;28;20584;-64
2022/01/10 04:37:48;;;;;;;2.75;2.63;;;4.60;99.90;;;4.66;89.53;100477.38;4972982;28;20280;-67
2022/01/10 04:40:24;;;;;;;2.67;2.47;;;4.50;99.90;;;4.68;89.68;100480.72;4989238;28;20203;-65
2022/01/10 04:42:53;;;;;;;2.85;2.65;;;4.60;99.90;;;4.69;89.61;100482.41;4991308;28;20210;-64
2022/01/10 04:45:20;;;;;;;6.18;3.08;;;4.50;99.90;;;4.71;89.85;100490.94;4972286;28;20598;-65
2022/01/10 04:47:47;;;;;;;3.83;3.25;;;4.50;99.90;;;4.71;89.69;100492.66;4990089;28;20183;-63
2022/01/10 04:52:50;;;;;;;5.03;3.40;;;4.50;99.90;;;4.73;90.38;100498.59;4988325;28;20191;-64
2022/01/10 04:55:19;;;;;;;5.65;3.38;;;4.60;99.90;;;4.70;90.16;100507.38;4972176;28;20226;-63
2022/01/10 04:57:46;;;;;;;4.30;3.35;;;4.50;99.90;;;4.68;90.54;100506.56;4971877;28;20194;-64
2022/01/10 05:00:20;;;;;;;5.05;3.60;;;4.50;99.90;;;4.66;90.75;100507.59;4989336;28;20200;-64
2022/01/10 05:02:50;;;;;;;5.30;3.50;;;4.50;99.90;;;4.67;90.66;100517.84;4988558;28;20202;-64
2022/01/10 05:05:17;;;;;;;3.53;3.22;;;4.50;99.90;;;4.62;91.13;100521.56;4954076;28;20704;-63
2022/01/10 05:07:44;;;;;;;3.95;2.80;;;4.50;99.90;;;4.61;90.79;100531.06;4976948;28;20209;-64
2022/01/10 05:10:11;;;;;;;7.57;2.97;;;4.40;99.90;;;4.61;90.84;100538.81;4975434;28;20199;-64
2022/01/10 05:12:38;;;;;;;5.95;3.00;;;4.50;99.90;;;4.56;90.21;100538.19;4994420;28;20207;-64
2022/01/10 05:15:06;;;;;;;5.97;3.28;;;4.50;99.90;;;4.52;90.23;100553.91;4994391;28;20919;-63
2022/01/10 05:17:33;;;;;;;4.85;3.42;;;4.40;99.90;;;4.47;90.84;100546.38;4988733;28;20207;-65
2022/01/10 05:20:00;;;;;;;9.32;3.38;;;4.30;99.90;;;4.41;90.79;100549.25;4974227;28;20224;-64
2022/01/10 05:22:27;;;;;;;6.20;3.25;;;4.20;99.90;;;4.37;91.22;100552.91;4975472;28;20198;-64
2022/01/10 05:24:54;;;;;;;3.10;2.90;;;4.20;99.90;;;4.42;90.57;100558.69;4941641;28;20743;-65
2022/01/10 05:27:21;;;;;;;5.15;3.10;;;4.30;99.90;;;4.39;90.36;100556.25;4977418;28;20203;-65
2022/01/10 05:29:48;;;;;;;3.88;2.88;;;4.20;99.90;;;4.37;90.68;100567.56;4991759;28;20206;-65
2022/01/10 05:32:15;;;;;;;6.55;3.40;;;4.20;99.90;;;4.35;90.88;100572.81;4994006;28;20205;-64
2022/01/10 05:34:41;;;;;;;4.53;3.38;;;4.20;99.90;;;4.37;91.15;100583.06;4985006;28;20773;-64
2022/01/10 05:37:08;;;;;;;5.53;3.33;;;4.20;99.90;;;4.34;91.17;100584.06;4975318;28;20224;-64
2022/01/10 05:39:35;;;;;;;4.88;3.08;;;4.20;99.90;;;4.34;91.02;100594.41;4974436;28;20310;-64
2022/01/10 05:42:03;;;;;;;6.70;3.80;;;4.20;99.90;;;4.34;91.03;100602.16;4975604;28;20208;-63
2022/01/10 05:44:30;;;;;;;4.10;3.67;;;4.20;99.90;;;4.38;90.99;100598.50;4992825;28;20237;-64
2022/01/10 05:46:59;;;;;;;9.70;3.85;;;4.20;99.90;;;4.40;90.80;100604.44;4992798;28;20563;-65
2022/01/10 05:49:32;;;;;;;7.50;3.35;;;4.20;99.90;;;4.43;90.64;100616.38;4987686;28;20204;-65
2022/01/10 05:52:00;;;;;;;4.57;3.25;;;4.30;99.90;;;4.42;90.54;100606.94;4975580;28;20653;-64
2022/01/10 05:54:28;;;;;;;4.40;3.55;;;4.30;99.90;;;4.45;90.12;100617.16;4993791;28;20245;-63
2022/01/10 05:56:55;;;;;;;5.35;3.42;;;4.30;99.90;;;4.42;90.47;100625.88;4992690;28;20204;-64
2022/01/10 05:59:22;;;;;;;9.35;3.60;;;4.30;99.90;;;4.46;90.14;100619.66;4994719;28;20201;-64
2022/01/10 06:01:49;;;;;;;6.43;3.97;;;4.30;99.90;;;4.45;90.00;100628.28;4991931;28;20210;-63
2022/01/10 06:04:16;;;;;;;8.65;3.30;;;4.30;99.90;;;4.44;90.32;100631.81;4994232;28;20580;-64
2022/01/10 06:06:43;;;;;;;4.00;3.30;;;4.30;99.90;;;4.44;90.29;100638.72;4990870;28;20237;-65
2022/01/10 06:09:10;;;;;;;5.22;2.45;;;4.30;99.90;;;4.46;90.29;100639.47;4976206;28;20196;-65
2022/01/10 06:11:39;;;;;;;6.40;2.95;;;4.30;99.90;;;4.47;90.16;100654.91;4992088;28;20210;-64
2022/01/10 06:14:07;;;;;;;6.65;3.60;;;4.30;99.90;;;4.47;90.20;100656.66;4976905;28;20325;-64
2022/01/10 06:16:35;;;;;;;6.78;3.60;;;4.30;99.90;;;4.44;90.14;100665.38;4991229;28;20199;-63
2022/01/10 06:19:02;;;;;;;6.18;3.13;;;4.30;99.90;;;4.41;90.32;100668.09;4993442;28;20302;-64
2022/01/10 06:21:29;;;;;;;4.00;2.85;;;4.30;99.90;;;4.42;89.88;100667.19;4972909;28;20345;-64
2022/01/10 06:23:56;;;;;;;7.25;3.97;;;4.30;99.90;;;4.45;89.71;100674.78;4993395;28;20314;-64
2022/01/10 06:26:23;;;;;;;5.15;3.50;;;4.30;99.90;;;4.47;90.00;100679.91;4992443;28;20203;-64
2022/01/10 06:28:50;;;;;;;3.67;2.80;;;4.30;99.90;;;4.49;89.76;100684.06;4993792;28;20218;-64
2022/01/10 06:31:17;;;;;;;5.10;3.55;;;4.40;99.90;;;4.51;89.92;100689.19;4972507;28;20203;-64
2022/01/10 06:33:44;;;;;;;6.65;3.88;;;4.40;99.90;;;4.52;89.94;100694.28;4992789;28;20749;-63
2022/01/10 06:36:11;;;;;;;5.35;3.15;;;4.40;99.90;;;4.53;89.74;100695.97;4990584;28;20225;-62
2022/01/10 06:38:38;;;;;;;4.03;3.13;;;4.40;99.90;;;4.55;90.04;100701.06;4992323;28;20203;-64
2022/01/10 06:41:05;;;;;;;5.50;3.17;;;4.40;99.90;;;4.54;90.06;100705.38;4991560;28;20211;-65
2022/01/10 06:43:32;;;;;;;7.57;3.20;;;4.40;99.90;;;4.51;89.74;100713.28;4990815;28;20227;-65
2022/01/10 06:45:59;;;;;;;6.07;4.05;;;4.40;99.90;;;4.52;89.72;100722.72;4992766;28;20198;-64
2022/01/10 06:48:26;;;;;;;5.75;3.60;;;4.40;99.90;;;4.50;89.89;100727.09;4991434;28;20207;-65
2022/01/10 06:50:54;;;;;;;4.18;3.35;;;4.40;99.90;;;4.51;90.36;100731.38;4976611;28;20200;-64
2022/01/10 06:53:22;;;;;;;3.20;2.90;;;4.40;99.90;;;4.50;89.93;100734.84;4987963;28;20668;-65
2022/01/10 06:55:50;;;;;;;4.88;3.13;;;4.40;99.90;;;4.49;90.08;100733.16;4957135;28;20207;-66
2022/01/10 06:58:17;;;;;;;3.75;3.00;;;4.40;99.90;;;4.49;90.68;100740.91;4973625;28;20213;-65
2022/01/10 07:00:45;;;;;;;3.45;3.00;;;4.40;99.90;;;4.52;90.15;100745.13;4988628;28;20204;-64
2022/01/10 07:03:12;;;;;;;6.78;3.60;;;4.40;99.90;;;4.51;90.29;100749.47;4991540;28;20621;-65
2022/01/10 07:05:39;;;;;;;5.85;3.47;;;4.40;99.90;;;4.51;90.20;100754.63;4990440;28;20293;-65
2022/01/10 07:08:06;;;;;;;5.35;3.85;;;4.40;99.90;;;4.56;89.85;100764.75;4989329;28;20211;-65
2022/01/10 07:10:33;;;;;;;6.40;4.00;;;4.40;99.90;;;4.55;90.06;100774.25;4991797;28;20278;-65
2022/01/10 07:13:01;;;;;;;6.57;4.00;;;4.40;99.90;;;4.53;90.13;100776.06;4973581;28;20207;-64
2022/01/10 07:15:29;;;;;;;9.07;4.22;;;4.40;99.90;;;4.56;90.24;100781.09;4989640;28;20246;-65
2022/01/10 07:17:56;;;;;;;4.25;3.65;;;4.40;99.90;;;4.53;90.45;100786.41;4975177;28;20199;-65
2022/01/10 07:20:23;;;;;;;9.75;6.65;;;4.40;99.90;;;4.53;90.08;100791.59;4992958;28;20207;-65
2022/01/10 07:22:50;;;;;;;12.25;5.18;;;4.40;99.90;;;4.55;89.84;100799.25;4975397;28;20217;-65
2022/01/10 07:25:17;;;;;;;7.68;4.47;;;4.40;99.90;;;4.48;89.68;100806.44;4974890;28;20318;-63
2022/01/10 07:27:44;;;;;;;7.32;4.05;;;4.40;99.90;;;4.49;89.89;100813.25;4957805;28;20194;-63
2022/01/10 07:30:11;;;;;;;6.97;3.75;;;4.30;99.90;;;4.47;89.98;100817.66;4972692;28;20199;-63
2022/01/10 07:32:37;;;;;;;5.18;3.15;;;4.30;99.90;;;4.46;89.77;100820.31;4991268;28;20203;-63
2022/01/10 07:35:05;;;;;;;5.55;3.22;;;4.30;99.90;;;4.48;89.95;100829.69;4973391;28;20230;-63
2022/01/10 07:37:32;;;;;;;3.15;2.85;;;4.30;99.90;;;4.46;89.64;100839.25;4989381;28;20207;-63
2022/01/10 07:39:59;;;;;;;3.08;2.88;;;4.30;99.90;;;4.47;89.52;100838.34;4991069;28;20191;-64
2022/01/10 07:42:27;;;;;;;7.47;3.63;;;4.40;99.90;;;4.44;89.52;100843.66;4987727;28;20211;-66
2022/01/10 07:44:54;;;;;;;5.00;3.63;;;4.30;99.90;;;4.45;89.37;100860.00;5002639;28;20707;-65
2022/01/10 07:47:21;;;;;;;3.47;3.13;;;4.30;99.90;;;4.42;89.36;100860.13;4999672;28;20210;-66
2022/01/10 07:49:48;;;;;;;8.02;4.30;;;4.30;99.90;;;4.42;89.43;100863.56;4986018;28;20290;-63
2022/01/10 07:52:15;;;;;;;7.68;3.70;;;4.30;99.90;;;4.41;89.59;100863.59;4984857;28;20291;-63
2022/01/10 07:54:44;;;;;;;5.28;3.10;;;4.30;99.90;;;4.40;89.62;100867.94;4979438;28;20659;-63
2022/01/10 07:57:11;;;;;;;5.18;3.30;;;4.20;99.90;;;4.40;89.69;100865.38;4971270;28;20295;-65
2022/01/10 07:59:40;;;;;;;6.10;2.97;;;4.30;99.90;;;4.42;89.14;100871.31;4975695;28;20202;-63
2022/01/10 08:02:08;;;;;;;2.92;2.63;;;4.30;99.90;;;4.46;89.41;100878.00;4974741;28;20200;-61
2022/01/10 08:04:36;;;;;;;5.15;3.10;;;4.40;99.90;;;4.51;89.12;100881.25;4989081;28;20301;-64
2022/01/10 08:07:06;;;;;;;7.30;3.10;;;4.40;99.90;;;4.57;89.02;100888.72;4978954;28;20208;-63
2022/01/10 08:09:33;;;;;;;4.32;3.38;;;4.50;99.90;;;4.63;88.87;100895.38;4989786;28;20200;-63
2022/01/10 08:12:00;;;;;;;6.65;3.42;;;4.60;99.90;;;4.72;88.50;100898.41;4991411;28;20676;-64
2022/01/10 08:14:31;;;;;;;5.50;2.95;;;4.60;99.90;;;4.84;87.95;100891.84;4973679;28;20235;-63
2022/01/10 08:16:59;;;;;;;5.32;3.10;;;4.80;99.90;;;4.93;86.77;100904.38;4991405;28;20237;-63
2022/01/10 08:19:30;;;;;;;3.85;2.95;;;4.90;99.90;;;5.07;86.31;100912.34;4988382;28;20211;-63
2022/01/10 08:21:58;;;;;;;3.22;2.92;;;5.10;99.90;;;5.20;85.63;100925.56;4994363;28;20210;-63
2022/01/10 08:24:25;;;;;;;3.63;2.78;;;5.20;99.90;;;5.33;84.64;100927.53;4989384;28;20680;-64
2022/01/10 08:26:53;;;;;;;5.80;4.22;;;5.30;99.90;;;5.45;83.94;100932.13;4989782;28;20282;-63
2022/01/10 08:29:20;;;;;;;8.60;3.58;;;5.50;99.90;;;5.64;83.14;100932.13;4971887;28;20226;-63
2022/01/10 08:31:47;;;;;;;5.85;3.50;;;5.70;99.90;;;5.69;82.45;100937.91;4990428;28;20746;-63
2022/01/10 08:34:14;;;;;;;4.15;3.05;;;5.70;99.90;;;5.87;82.51;100941.44;4991627;28;20229;-63
2022/01/10 08:36:41;;;;;;;7.40;4.30;;;5.90;99.90;;;6.42;81.79;100934.41;4983432;28;20186;-63
2022/01/10 08:39:09;;;;;;;5.55;3.42;;;6.50;99.90;;;7.11;77.53;100941.16;4991610;28;20644;-63
2022/01/10 08:41:36;;;;;;;6.57;2.97;;;7.30;99.90;;;7.68;74.79;100943.22;4986056;28;20293;-63
2022/01/10 08:44:05;;;;;;;3.53;3.03;;;8.00;99.90;;;7.99;72.92;100962.28;4982451;28;21282;-65
2022/01/10 08:46:33;;;;;;;10.67;3.97;;;8.30;99.90;;;8.27;71.23;100955.47;4977917;28;20995;-62
2022/01/10 08:49:01;;;;;;;11.20;3.33;;;8.60;99.90;;;8.22;70.77;100960.06;4995531;28;20640;-64
2022/01/10 08:51:29;;;;;;;6.27;3.73;;;8.40;99.90;;;8.14;70.86;100967.47;4993352;28;20638;-63
2022/01/10 08:53:57;;;;;;;7.17;3.53;;;8.30;99.90;;;8.15;71.09;100966.56;4996064;28;20638;-64
2022/01/10 08:56:24;;;;;;;3.80;3.50;;;8.20;99.90;;;8.17;70.90;100976.84;4994064;28;20965;-64
2022/01/10 08:58:51;;;;;;;14.70;5.70;;;8.20;99.90;;;8.22;70.23;100982.66;4972325;28;20710;-64
2022/01/10 09:01:21;;;;;;;6.50;4.27;;;8.30;99.90;;;8.26;70.69;100982.38;4971962;28;20645;-62
2022/01/10 09:03:49;;;;;;;10.13;5.10;;;8.40;99.90;;;8.29;70.39;100978.78;4994293;28;20642;-64
2022/01/10 09:06:17;;;;;;;12.73;4.77;;;8.50;99.90;;;8.32;69.91;100989.03;4991772;28;20753;-64
2022/01/10 09:08:47;;;;;;;8.43;4.90;;;8.50;99.90;;;8.32;69.93;100994.22;4972762;28;20616;-64
2022/01/10 09:11:14;;;;;;;9.43;5.03;;;8.50;99.90;;;8.22;69.98;101001.66;4980201;28;20638;-64
2022/01/10 09:13:42;;;;;;;9.87;4.40;;;8.50;99.90;;;8.29;69.92;100997.81;4980898;28;20694;-64
2022/01/10 09:16:09;;;;;;;9.80;4.73;;;8.50;99.90;;;7.96;70.61;101006.66;4994296;28;20628;-64
2022/01/10 09:18:36;;;;;;;5.10;3.40;;;8.20;99.90;;;7.90;71.33;101014.78;4972452;28;20713;-64
2022/01/10 09:21:03;;;;;;;6.90;3.60;;;8.00;99.90;;;7.69;72.04;101009.81;4978012;28;20630;-64
2022/01/10 09:23:30;;;;;;;4.83;3.87;;;7.80;99.90;;;7.43;73.09;101018.16;4993483;28;20662;-65
2022/01/10 09:25:57;;;;;;;11.47;4.30;;;7.40;99.90;;;7.23;74.12;101018.38;4994731;28;20664;-64
2022/01/10 09:28:25;;;;;;;8.63;4.20;;;7.30;99.90;;;7.23;73.78;101025.31;4993756;28;20636;-64
2022/01/10 09:30:52;;;;;;;10.73;4.27;;;7.30;99.90;;;7.39;73.84;101023.59;4984023;28;21190;-64
2022/01/10 09:33:20;;;;;;;5.83;3.97;;;7.50;99.90;;;7.60;73.89;101023.28;4993814;28;20621;-65
2022/01/10 09:35:47;;;;;;;6.90;4.50;;;7.80;99.90;;;7.75;72.31;101034.63;4981114;28;20638;-64
2022/01/10 09:38:14;;;;;;;9.40;4.40;;;7.90;99.90;;;7.75;71.89;101035.47;4993559;28;20713;-65
2022/01/10 09:40:41;;;;;;;9.03;4.03;;;7.90;99.90;;;7.77;72.06;101035.41;4992792;28;20634;-64
2022/01/10 09:43:18;;;;;;;9.20;4.73;;;7.90;99.90;;;7.75;72.44;101032.84;4994211;28;20618;-64
2022/01/10 09:45:47;;;;;;;5.50;3.80;;;7.90;99.90;;;7.71;72.12;101046.94;4992148;28;20669;-64
2022/01/10 09:48:14;;;;;;;6.30;4.30;;;7.80;99.90;;;7.57;72.96;101049.44;4992248;28;21147;-64
2022/01/10 09:50:42;;;;;;;8.83;4.40;;;7.70;99.90;;;7.60;72.54;101043.25;4991266;28;20646;-65
2022/01/10 09:53:10;;;;;;;6.07;3.67;;;7.70;99.90;;;7.78;72.85;101052.63;4983676;28;20649;-65
2022/01/10 09:55:38;;;;;;;8.40;4.00;;;7.90;99.90;;;7.86;72.28;101060.03;4958467;28;20618;-64
2022/01/10 09:58:06;;;;;;;13.97;4.57;;;8.00;99.90;;;7.98;71.63;101061.97;4991420;28;20644;-64
2022/01/10 10:00:33;;;;;;;7.30;4.60;;;8.10;99.90;;;7.72;73.13;101064.22;4991491;28;20629;-65
2022/01/10 10:03:01;;;;;;;8.63;4.17;;;8.00;99.90;;;7.81;73.03;101063.69;4990648;28;21208;-63
2022/01/10 10:05:29;;;;;;;8.07;4.27;;;7.90;99.90;;;7.77;72.83;101067.38;4986091;28;20674;-63
2022/01/10 10:07:56;;;;;;;7.60;4.37;;;7.90;99.90;;;7.68;72.11;101073.09;4992484;28;20987;-63
2022/01/10 10:10:28;;;;;;;5.60;4.10;;;7.80;99.90;;;7.59;73.21;101083.09;4992082;28;20634;-63
2022/01/10 10:12:56;;;;;;;8.13;4.17;;;7.60;99.90;;;7.45;73.50;101080.41;4994484;28;20601;-64
2022/01/10 10:15:28;;;;;;;6.30;3.63;;;7.50;99.90;;;7.42;73.33;101088.34;4992630;28;20745;-63
2022/01/10 10:17:55;;;;;;;5.13;3.33;;;7.40;99.90;;;7.33;74.08;101081.00;4992307;28;20622;-64
2022/01/10 10:20:23;;;;;;;7.90;4.30;;;7.40;99.90;;;6.93;75.80;101083.03;4992805;28;20617;-64
2022/01/10 10:23:15;;;;;;;4.77;3.20;;;6.90;99.90;;;6.89;76.42;101091.03;4992735;28;20649;-63
2022/01/10 10:25:52;;;;;;;7.23;4.10;;;6.80;99.90;;;6.82;76.33;101084.47;4993283;28;21005;-64
2022/01/10 10:28:21;;;;;;;15.23;3.20;;;6.70;99.90;;;6.76;77.00;101088.22;4989103;28;20628;-64
2022/01/10 10:30:56;;;;;;;5.93;3.53;;;6.70;99.90;;;6.81;77.28;101085.41;4992592;28;20721;-64
2022/01/10 10:33:23;;;;;;;3.87;3.03;;;6.70;99.90;;;6.84;77.06;101093.03;4990789;28;20672;-64
2022/01/10 10:35:58;;;;;;;4.10;3.10;;;6.80;99.90;;;6.88;76.70;101090.19;4993474;28;20599;-63
2022/01/10 10:38:27;;;;;;;5.83;3.20;;;6.80;99.90;;;6.90;77.72;101090.97;4989513;28;20657;-63
2022/01/10 10:41:02;;;;;;;9.10;3.80;;;6.80;99.90;;;6.89;77.04;101096.25;4973018;28;20638;-63